Terminal Aerodrome Forecast
Issued by NWS Jackson, MS

Current Version | Previous Version | Text Only | Print | Product List | Glossary On
Versions: 1 2 3 4 5 6 7 8 9 10 11 12 13 14 15 16 17 18
000
FTUS44 KJAN 051800 AAA
TAFHBG
TAF AMD
KHBG 051800Z 0518/0618 27015G25KT 1/2SM +TSRA OVC030CB
      TEMPO 0518/0520 3SM TSRA BKN040CB
     FM052000 23006KT P6SM VCTS SCT030 BKN050CB
     FM060100 VRB03KT P6SM BKN050
     FM061000 00000KT 5SM BR BKN050
     FM061500 20005KT P6SM SCT050=

USA.gov is the U.S. government's official web portal to all federal, state and local government web resources and services.